Time;durP1;ratioP1;P1;durP2;ratioP2;P2;SDS_P1;SDS_P2;PMS_P1;PMS_P2;Temp;Humidity;BMP_temperature;BMP_pressure;BME280_temperature;BME280_humidity;BME280_pressure;Samples;Min_cycle;Max_cycle;Signal;HPM_P1;HPM_P2
2023/04/11 00:00:37;;;;;;;32.50;21.20;;;;;;;8.28;83.49;100871.58;105856;1258;99205;-76
2023/04/11 00:03:23;;;;;;;30.60;20.30;;;;;;;8.28;83.58;100872.48;105851;1260;97960;-76
2023/04/11 00:06:09;;;;;;;27.60;19.80;;;;;;;8.27;83.29;100866.89;105467;1268;99198;-80
2023/04/11 00:08:55;;;;;;;30.10;19.90;;;;;;;8.26;83.47;100863.95;105936;1261;98465;-79
2023/04/11 00:11:41;;;;;;;30.40;20.60;;;;;;;8.24;83.34;100859.55;105873;1260;102621;-79
2023/04/11 00:14:27;;;;;;;31.70;21.70;;;;;;;8.21;83.41;100854.88;105821;1260;99075;-79
2023/04/11 00:17:16;;;;;;;32.70;21.20;;;;;;;8.18;83.48;100855.96;105789;1260;99338;-80
2023/04/11 00:20:06;;;;;;;28.60;20.20;;;;;;;8.14;83.77;100854.73;105741;1258;98841;-79
2023/04/11 00:22:52;;;;;;;27.60;17.70;;;;;;;8.13;84.20;100852.75;105822;1269;97962;-79
2023/04/11 00:25:38;;;;;;;20.50;15.30;;;;;;;8.09;84.18;100856.41;105742;1260;101334;-77
2023/04/11 00:28:24;;;;;;;20.60;14.30;;;;;;;8.02;84.58;100854.71;105491;1260;99089;-76
2023/04/11 00:31:11;;;;;;;17.40;12.60;;;;;;;7.98;84.83;100852.95;105804;1259;98512;-75
2023/04/11 00:33:57;;;;;;;20.50;13.10;;;;;;;7.93;84.31;100848.69;105698;1260;98854;-76
2023/04/11 00:36:43;;;;;;;20.10;14.10;;;;;;;7.87;84.23;100848.60;105856;1261;97870;-80
2023/04/11 00:39:33;;;;;;;23.20;16.90;;;;;;;7.84;84.28;100847.00;105878;1265;101357;-80
2023/04/11 00:42:19;;;;;;;27.40;17.90;;;;;;;7.83;84.44;100846.96;105907;1259;99131;-79
2023/04/11 00:45:06;;;;;;;28.90;18.40;;;;;;;7.82;84.30;100843.33;105846;1257;99048;-79
2023/04/11 00:47:52;;;;;;;29.00;21.10;;;;;;;7.80;84.35;100833.73;105634;1258;97958;-78
2023/04/11 00:50:41;;;;;;;30.80;21.60;;;;;;;7.78;84.39;100830.78;105526;1256;97977;-76
2023/04/11 00:53:31;;;;;;;32.60;21.80;;;;;;;7.74;84.41;100829.38;105403;1260;101334;-78
2023/04/11 00:56:17;;;;;;;32.80;22.40;;;;;;;7.72;84.40;100823.00;105258;1261;100003;-77
2023/04/11 00:59:02;;;;;;;42.10;26.00;;;;;;;7.71;84.40;100822.77;105274;1254;98585;-78
2023/04/11 01:01:48;;;;;;;40.90;26.90;;;;;;;7.69;84.47;100816.39;105388;1269;97962;-76
2023/04/11 01:04:33;;;;;;;38.30;24.90;;;;;;;7.68;84.60;100816.77;105424;1268;98466;-78
2023/04/11 01:07:21;;;;;;;40.50;25.70;;;;;;;7.65;84.96;100814.88;105355;1267;101389;-78
2023/04/11 01:10:08;;;;;;;39.80;25.20;;;;;;;7.62;85.30;100813.23;105346;1260;99259;-77
2023/04/11 01:12:55;;;;;;;32.50;22.60;;;;;;;7.59;85.12;100812.70;105627;1269;98020;-78
2023/04/11 01:15:41;;;;;;;40.10;26.40;;;;;;;7.55;85.24;100808.15;105702;1260;97928;-77
2023/04/11 01:18:27;;;;;;;38.90;25.50;;;;;;;7.54;85.31;100804.95;105479;1258;98483;-77
2023/04/11 01:21:12;;;;;;;34.30;25.20;;;;;;;7.51;84.71;100806.78;105423;1261;101304;-76
2023/04/11 01:24:02;;;;;;;37.80;23.10;;;;;;;7.49;84.89;100808.84;105377;1257;100906;-78
2023/04/11 01:26:48;;;;;;;34.30;23.50;;;;;;;7.46;84.85;100811.60;105598;1261;98030;-80
2023/04/11 01:29:34;;;;;;;39.00;25.40;;;;;;;7.43;84.80;100810.18;105822;1255;99250;-79
2023/04/11 01:32:19;;;;;;;35.40;24.40;;;;;;;7.39;84.92;100807.71;105736;1260;98486;-79
2023/04/11 01:35:07;;;;;;;33.70;24.20;;;;;;;7.35;84.79;100802.70;105554;1259;102392;-76
2023/04/11 01:37:52;;;;;;;36.40;23.80;;;;;;;7.30;85.03;100803.60;105482;1260;99099;-76
2023/04/11 01:40:39;;;;;;;34.40;22.10;;;;;;;7.27;85.62;100798.90;105320;1260;99473;-77
2023/04/11 01:43:24;;;;;;;31.20;21.40;;;;;;;7.25;85.78;100797.30;106020;1258;97982;-77
2023/04/11 01:46:12;;;;;;;33.50;21.70;;;;;;;7.24;86.02;100793.76;105318;1257;99320;-77
2023/04/11 01:49:00;;;;;;;31.80;22.10;;;;;;;7.21;85.61;100793.90;105227;1260;102596;-77
2023/04/11 01:51:46;;;;;;;34.90;23.70;;;;;;;7.18;85.08;100787.77;105396;1257;99572;-76
2023/04/11 01:54:31;;;;;;;36.10;24.90;;;;;;;7.16;85.20;100783.57;105526;1260;99238;-77
2023/04/11 01:57:16;;;;;;;37.30;25.70;;;;;;;7.15;85.36;100783.50;105281;1257;98678;-78
2023/04/11 02:00:05;;;;;;;35.60;24.50;;;;;;;7.13;85.49;100781.20;105402;1257;98373;-77
2023/04/11 02:02:59;;;;;;;36.50;25.80;;;;;;;7.11;85.83;100776.45;105312;1260;101336;-78
2023/04/11 02:05:45;;;;;;;39.40;25.50;;;;;;;7.10;85.78;100769.52;105400;1258;99231;-76
2023/04/11 02:08:31;;;;;;;35.20;25.90;;;;;;;7.08;85.53;100769.65;105549;1260;98307;-76
2023/04/11 02:11:16;;;;;;;40.40;26.80;;;;;;;7.06;85.58;100764.79;105342;1260;97860;-76
2023/04/11 02:14:05;;;;;;;38.00;25.90;;;;;;;7.04;85.66;100763.17;105313;1257;98378;-76
2023/04/11 02:16:51;;;;;;;43.70;28.00;;;;;;;7.03;85.94;100759.50;105451;1260;101364;-76
2023/04/11 02:19:40;;;;;;;39.60;25.90;;;;;;;7.01;85.99;100759.56;105380;1260;99535;-77
2023/04/11 02:22:27;;;;;;;37.90;27.90;;;;;;;6.97;86.02;100755.55;105369;1257;98867;-77
2023/04/11 02:25:12;;;;;;;39.10;25.60;;;;;;;6.95;86.30;100754.35;105265;1260;97894;-78
2023/04/11 02:27:57;;;;;;;40.20;26.40;;;;;;;6.92;86.38;100754.80;105425;1258;97902;-77
2023/04/11 02:30:43;;;;;;;32.90;24.30;;;;;;;6.91;86.86;100753.54;105391;1259;101381;-77
2023/04/11 02:33:29;;;;;;;34.80;24.00;;;;;;;6.89;86.99;100753.36;105475;1258;100326;-77
2023/04/11 02:36:15;;;;;;;31.50;22.40;;;;;;;6.87;87.10;100752.32;105577;1254;98427;-78
2023/04/11 02:39:00;;;;;;;34.10;22.90;;;;;;;6.85;87.40;100745.85;105486;1261;98566;-78
2023/04/11 02:41:46;;;;;;;33.40;23.40;;;;;;;6.82;87.21;100742.73;105306;1261;98483;-77
2023/04/11 02:44:31;;;;;;;34.40;24.30;;;;;;;6.80;86.84;100736.59;105491;1255;102610;-75
2023/04/11 02:47:18;;;;;;;33.20;23.60;;;;;;;6.79;86.76;100730.14;105453;1260;100385;-78
2023/04/11 02:50:05;;;;;;;34.60;24.70;;;;;;;6.77;86.48;100728.89;105715;1260;97863;-78
2023/04/11 02:52:55;;;;;;;32.30;24.60;;;;;;;6.74;86.62;100723.20;105541;1260;97953;-77
2023/04/11 02:55:43;;;;;;;35.30;24.40;;;;;;;6.72;86.78;100718.23;105353;1260;98029;-77
2023/04/11 02:58:29;;;;;;;36.80;24.40;;;;;;;6.69;86.56;100717.48;105619;1260;102637;-78
2023/04/11 03:01:17;;;;;;;35.40;24.30;;;;;;;6.66;86.47;100718.36;105720;1259;99063;-77
2023/04/11 03:04:03;;;;;;;36.10;25.20;;;;;;;6.64;86.89;100715.70;105615;1257;97897;-78
2023/04/11 03:06:57;;;;;;;34.30;23.80;;;;;;;6.64;87.06;100715.69;105595;1257;97968;-77
2023/04/11 03:09:43;;;;;;;33.80;23.60;;;;;;;6.66;87.28;100711.98;105683;1258;98410;-79
2023/04/11 03:12:29;;;;;;;34.20;23.70;;;;;;;6.67;87.48;100706.87;105686;1257;101384;-78
2023/04/11 03:15:19;;;;;;;31.90;23.30;;;;;;;6.68;87.49;100701.80;105507;1255;100506;-77
2023/04/11 03:18:04;;;;;;;36.10;24.90;;;;;;;6.69;87.72;100698.75;105358;1257;99017;-78
2023/04/11 03:20:51;;;;;;;34.50;23.90;;;;;;;6.70;87.63;100697.02;105579;1257;97959;-78
2023/04/11 03:23:37;;;;;;;33.80;25.20;;;;;;;6.69;87.38;100691.23;105544;1258;98885;-76
2023/04/11 03:26:26;;;;;;;32.80;23.00;;;;;;;6.68;87.66;100691.92;105443;1260;103153;-80
2023/04/11 03:29:13;;;;;;;33.60;23.40;;;;;;;6.65;87.68;100690.95;105348;1258;99833;-77
2023/04/11 03:32:12;;;;;;;31.60;22.60;;;;;;;6.62;87.49;100688.96;105285;1260;98528;-77
2023/04/11 03:35:00;;;;;;;33.80;24.00;;;;;;;6.60;87.71;100685.48;105202;1261;98003;-76
2023/04/11 03:37:47;;;;;;;34.30;25.20;;;;;;;6.56;87.61;100680.72;105379;1261;97986;-76
2023/04/11 03:40:32;;;;;;;34.30;24.80;;;;;;;6.54;87.54;100679.88;105480;1260;101351;-77
2023/04/11 03:43:25;;;;;;;29.90;23.20;;;;;;;6.52;87.56;100683.30;105602;1257;99178;-78
2023/04/11 03:46:11;;;;;;;32.50;22.40;;;;;;;6.51;87.49;100684.29;105590;1258;99023;-78
2023/04/11 03:49:00;;;;;;;34.90;24.50;;;;;;;6.49;87.25;100687.54;105738;1264;97998;-77
2023/04/11 03:51:46;;;;;;;33.20;23.20;;;;;;;6.47;87.29;100687.34;105648;1260;97964;-78
2023/04/11 03:54:32;;;;;;;36.80;25.40;;;;;;;6.45;87.33;100693.27;105707;1258;102868;-78
2023/04/11 03:57:18;;;;;;;32.80;25.60;;;;;;;6.45;88.23;100691.11;105649;1260;100051;-79
2023/04/11 04:00:06;;;;;;;37.20;25.50;;;;;;;6.48;88.59;100690.12;105484;1260;98978;-76
2023/04/11 04:03:00;;;;;;;39.90;25.70;;;;;;;6.51;89.39;100685.64;105468;1257;98056;-80
2023/04/11 04:05:46;;;;;;;49.80;31.10;;;;;;;6.55;89.99;100686.17;105470;1257;97976;-76
2023/04/11 04:08:32;;;;;;;45.10;28.20;;;;;;;6.57;90.47;100681.69;105453;1257;101295;-76
2023/04/11 04:11:18;;;;;;;47.30;29.50;;;;;;;6.59;90.71;100685.19;105268;1256;99955;-76
2023/04/11 04:14:04;;;;;;;40.10;28.50;;;;;;;6.61;91.09;100687.97;105308;1261;97999;-78
2023/04/11 04:16:50;;;;;;;37.90;26.40;;;;;;;6.62;91.12;100687.88;105356;1254;98018;-77
2023/04/11 04:19:35;;;;;;;34.60;25.70;;;;;;;6.63;91.13;100686.61;105766;1257;99574;-78
2023/04/11 04:22:22;;;;;;;43.10;26.40;;;;;;;6.62;91.51;100684.41;105673;1257;103087;-78
2023/04/11 04:25:16;;;;;;;33.50;24.50;;;;;;;6.61;91.54;100681.95;106443;1260;99142;-77
2023/04/11 04:28:02;;;;;;;34.10;24.40;;;;;;;6.62;91.86;100681.85;105789;1260;98083;-79
2023/04/11 04:30:56;;;;;;;34.00;25.30;;;;;;;6.63;92.13;100679.33;105658;1254;97949;-77
2023/04/11 04:33:43;;;;;;;35.00;24.60;;;;;;;6.63;92.34;100675.43;105637;1260;98468;-78
2023/04/11 04:36:46;;;;;;;34.20;26.10;;;;;;;6.65;92.60;100667.96;105757;1261;101902;-80
2023/04/11 04:39:36;;;;;;;37.30;25.60;;;;;;;6.67;92.49;100666.23;105708;1257;99062;-79
2023/04/11 04:42:25;;;;;;;34.40;24.60;;;;;;;6.68;92.42;100667.55;105533;1260;97897;-78
2023/04/11 04:45:13;;;;;;;33.90;25.10;;;;;;;6.70;92.37;100666.61;106203;1254;97888;-77
2023/04/11 04:47:59;;;;;;;33.30;24.00;;;;;;;6.73;92.29;100668.82;105406;1254;98492;-78
2023/04/11 04:50:45;;;;;;;41.30;26.90;;;;;;;6.75;92.16;100663.80;105473;1258;101395;-75
2023/04/11 04:53:33;;;;;;;37.00;24.90;;;;;;;6.77;92.27;100662.48;105314;1260;99088;-77
2023/04/11 04:56:18;;;;;;;35.20;25.00;;;;;;;6.80;92.30;100660.92;105333;1260;98435;-80
2023/04/11 04:59:06;;;;;;;35.50;26.40;;;;;;;6.84;92.58;100658.21;105931;1259;97938;-79
2023/04/11 05:01:54;;;;;;;38.40;25.80;;;;;;;6.87;92.91;100648.48;105844;1260;97933;-77
2023/04/11 05:04:45;;;;;;;37.90;25.10;;;;;;;6.91;92.98;100646.79;105549;1254;101914;-77
2023/04/11 05:07:31;;;;;;;41.30;28.40;;;;;;;6.96;93.39;100647.54;105661;1254;100897;-77
2023/04/11 05:10:16;;;;;;;40.00;27.60;;;;;;;7.02;93.77;100644.65;105403;1260;97877;-77
2023/04/11 05:13:03;;;;;;;36.80;27.00;;;;;;;7.07;94.19;100646.98;105752;1254;99234;-79
2023/04/11 05:15:50;;;;;;;37.40;27.10;;;;;;;7.08;94.70;100641.23;105536;1254;99215;-78
2023/04/11 05:18:36;;;;;;;36.80;26.20;;;;;;;7.11;95.10;100632.76;105831;1259;102620;-80
2023/04/11 05:21:21;;;;;;;41.00;28.60;;;;;;;7.17;95.27;100629.17;105605;1254;100536;-78
2023/04/11 05:24:09;;;;;;;37.70;27.10;;;;;;;7.23;95.66;100623.92;105421;1260;98282;-77
2023/04/11 05:26:55;;;;;;;36.90;27.30;;;;;;;7.27;95.85;100621.64;105382;1254;99122;-76
2023/04/11 05:29:41;;;;;;;41.40;30.00;;;;;;;7.33;96.19;100618.17;105490;1256;98049;-77
2023/04/11 05:32:27;;;;;;;40.00;28.60;;;;;;;7.39;96.44;100617.11;105647;1258;101909;-78
2023/04/11 05:35:13;;;;;;;42.50;29.10;;;;;;;7.46;96.69;100612.45;105366;1256;99069;-78
2023/04/11 05:38:04;;;;;;;40.20;29.10;;;;;;;7.53;97.13;100604.38;105406;1258;98461;-77
2023/04/11 05:40:50;;;;;;;39.40;27.40;;;;;;;7.61;97.29;100602.12;105702;1254;97876;-77
2023/04/11 05:43:35;;;;;;;41.00;27.90;;;;;;;7.70;97.76;100599.88;105623;1254;97970;-76
2023/04/11 05:46:21;;;;;;;41.40;28.80;;;;;;;7.80;98.02;100594.49;105602;1258;102222;-78
2023/04/11 05:49:07;;;;;;;41.70;29.20;;;;;;;7.90;98.40;100593.58;105578;1259;99237;-77
2023/04/11 05:51:52;;;;;;;41.80;28.80;;;;;;;8.00;98.44;100592.30;105560;1258;97984;-77
2023/04/11 05:54:38;;;;;;;40.10;28.20;;;;;;;8.10;98.58;100589.13;105551;1258;98664;-77
2023/04/11 05:57:23;;;;;;;38.80;28.70;;;;;;;8.21;98.80;100581.15;105633;1254;98403;-77
2023/04/11 06:00:12;;;;;;;39.20;28.30;;;;;;;8.31;99.07;100579.64;105779;1258;103118;-77
2023/04/11 06:03:01;;;;;;;40.90;28.10;;;;;;;8.42;99.17;100577.31;105950;1260;99166;-80
2023/04/11 06:05:46;;;;;;;40.70;25.70;;;;;;;8.53;99.14;100578.16;105776;1254;98961;-75
2023/04/11 06:08:33;;;;;;;35.70;26.20;;;;;;;8.65;99.31;100574.13;105680;1258;98074;-77
2023/04/11 06:11:19;;;;;;;41.90;27.60;;;;;;;8.78;99.55;100574.66;105699;1260;98438;-78
2023/04/11 06:14:05;;;;;;;36.70;27.70;;;;;;;8.89;99.50;100573.48;107316;1255;102079;-78
2023/04/11 06:16:51;;;;;;;32.10;24.60;;;;;;;9.01;99.13;100569.61;105443;1255;100157;-77
2023/04/11 06:19:36;;;;;;;33.70;26.00;;;;;;;9.12;99.22;100561.30;105423;1254;97943;-77
2023/04/11 06:22:22;;;;;;;38.40;26.90;;;;;;;9.24;99.48;100561.48;105559;1258;97968;-78
2023/04/11 06:25:08;;;;;;;31.90;24.90;;;;;;;9.37;99.27;100560.06;105640;1256;98537;-76
2023/04/11 06:27:53;;;;;;;32.30;24.60;;;;;;;9.48;98.94;100549.92;105721;1258;101333;-77
2023/04/11 06:30:39;;;;;;;43.00;31.00;;;;;;;9.61;98.92;100540.45;105474;1260;99226;-78
2023/04/11 06:33:24;;;;;;;31.00;24.70;;;;;;;9.73;99.00;100539.49;105547;1258;98071;-79
2023/04/11 06:36:10;;;;;;;29.90;23.90;;;;;;;9.86;99.00;100533.77;105620;1260;97970;-78
2023/04/11 06:38:56;;;;;;;31.60;23.10;;;;;;;9.98;98.51;100531.59;105671;1259;98476;-78
2023/04/11 06:41:42;;;;;;;35.10;28.90;;;;;;;10.09;98.43;100531.70;105642;1269;102595;-74
2023/04/11 06:44:27;;;;;;;27.90;23.40;;;;;;;10.21;98.16;100527.83;107620;1258;99758;-80
2023/04/11 06:47:13;;;;;;;30.60;22.40;;;;;;;10.32;97.71;100523.39;105684;1257;98928;-79
2023/04/11 06:49:59;;;;;;;27.80;21.50;;;;;;;10.43;97.56;100521.64;105641;1260;97958;-79
2023/04/11 06:52:45;;;;;;;29.30;20.30;;;;;;;10.56;97.87;100516.57;105606;1254;99637;-77
2023/04/11 06:55:30;;;;;;;21.40;17.30;;;;;;;10.69;97.27;100512.80;105573;1254;101329;-78
2023/04/11 06:58:16;;;;;;;24.20;17.90;;;;;;;10.81;96.94;100515.23;105526;1258;100331;-77
2023/04/11 07:01:02;;;;;;;27.60;18.70;;;;;;;10.95;96.95;100514.59;105341;1255;97966;-77
2023/04/11 07:03:48;;;;;;;20.30;15.10;;;;;;;11.08;96.55;100512.20;105518;1257;97922;-78
2023/04/11 07:06:34;;;;;;;15.50;12.90;;;;;;;11.21;96.39;100511.10;105331;1260;98468;-78
2023/04/11 07:09:20;;;;;;;16.70;12.00;;;;;;;11.34;95.91;100508.64;105317;1260;101401;-79
2023/04/11 07:12:05;;;;;;;15.50;11.10;;;;;;;11.47;95.14;100512.55;105290;1260;99217;-78
2023/04/11 07:14:51;;;;;;;13.20;10.40;;;;;;;11.58;94.64;100515.20;105384;1257;98312;-79
2023/04/11 07:17:36;;;;;;;13.10;10.40;;;;;;;11.69;94.08;100511.88;105628;1255;98887;-78
2023/04/11 07:20:22;;;;;;;11.80;9.70;;;;;;;11.79;93.74;100508.35;105638;1260;97944;-78
2023/04/11 07:23:08;;;;;;;12.10;10.20;;;;;;;11.88;93.61;100504.66;105654;1258;101347;-77
2023/04/11 07:25:54;;;;;;;11.90;10.10;;;;;;;11.99;93.45;100506.23;105444;1255;100571;-77
2023/04/11 07:28:40;;;;;;;11.30;8.40;;;;;;;12.10;93.34;100500.85;105391;1257;98071;-78
2023/04/11 07:31:26;;;;;;;9.80;7.40;;;;;;;12.22;92.78;100500.42;105208;1255;97981;-77
2023/04/11 07:34:11;;;;;;;9.20;7.40;;;;;;;12.32;91.65;100500.75;105278;1255;96724;-78
2023/04/11 07:36:59;;;;;;;9.00;7.20;;;;;;;12.40;91.12;100497.23;105425;1255;101336;-78
2023/04/11 07:39:45;;;;;;;9.70;6.70;;;;;;;12.50;91.34;100492.67;105263;1255;99838;-78
2023/04/11 07:42:30;;;;;;;12.30;6.70;;;;;;;12.60;90.89;100489.56;105581;1255;97968;-79
2023/04/11 07:45:16;;;;;;;9.80;6.90;;;;;;;12.68;90.35;100485.58;105558;1260;97900;-78
2023/04/11 07:48:02;;;;;;;9.40;7.10;;;;;;;12.76;89.75;100480.73;105620;1259;98571;-77
2023/04/11 07:50:47;;;;;;;10.20;6.60;;;;;;;12.84;89.17;100479.33;105614;1259;102631;-78
2023/04/11 07:53:33;;;;;;;11.00;7.30;;;;;;;12.91;88.80;100476.61;105598;1260;100339;-78
2023/04/11 07:56:19;;;;;;;8.10;6.40;;;;;;;13.00;88.49;100475.55;105639;1256;99390;-79
2023/04/11 07:59:04;;;;;;;7.50;6.00;;;;;;;13.09;88.74;100472.02;105736;1255;99208;-80
2023/04/11 08:01:58;;;;;;;11.20;9.00;;;;;;;13.19;88.51;100467.11;105863;1260;97990;-79
2023/04/11 08:04:44;;;;;;;7.80;6.50;;;;;;;13.23;87.70;100463.96;105987;1254;102580;-80
2023/04/11 08:07:29;;;;;;;8.30;6.50;;;;;;;13.20;86.80;100459.75;105875;1260;100163;-80
2023/04/11 08:10:15;;;;;;;9.20;7.20;;;;;;;13.19;86.43;100454.52;105839;1255;97892;-80
2023/04/11 08:13:01;;;;;;;10.90;7.10;;;;;;;13.23;86.39;100448.66;105795;1257;98070;-76
2023/04/11 08:15:46;;;;;;;7.80;6.90;;;;;;;13.29;86.41;100439.04;105414;1256;98512;-77
2023/04/11 08:18:32;;;;;;;7.70;6.30;;;;;;;13.37;86.38;100432.30;105367;1260;110082;-78
2023/04/11 08:21:17;;;;;;;9.00;6.80;;;;;;;13.48;86.90;100428.31;105386;1260;100295;-77
2023/04/11 08:24:03;;;;;;;10.00;6.90;;;;;;;13.61;86.83;100422.15;105448;1254;99485;-77
2023/04/11 08:26:49;;;;;;;8.30;6.80;;;;;;;13.70;86.22;100421.95;105367;1256;97953;-78
2023/04/11 08:29:35;;;;;;;8.00;6.60;;;;;;;13.77;85.90;100416.52;105531;1255;97928;-78
2023/04/11 08:32:20;;;;;;;9.00;7.20;;;;;;;13.83;85.15;100416.95;105310;1256;101358;-78
2023/04/11 08:35:06;;;;;;;7.40;6.50;;;;;;;13.93;84.94;100414.73;105388;1258;99037;-77
2023/04/11 08:37:53;;;;;;;7.40;6.00;;;;;;;14.09;84.63;100407.75;105373;1255;97965;-78
2023/04/11 08:40:38;;;;;;;8.30;7.10;;;;;;;14.20;83.57;100403.63;105431;1258;99184;-77
2023/04/11 08:43:24;;;;;;;6.30;5.60;;;;;;;14.29;83.62;100401.99;105256;1258;98406;-78
2023/04/11 08:46:11;;;;;;;8.90;5.30;;;;;;;14.38;82.66;100390.71;105204;1255;102632;-79
2023/04/11 08:48:57;;;;;;;7.50;5.10;;;;;;;14.47;82.13;100390.17;105281;1256;101924;-79
2023/04/11 08:51:43;;;;;;;6.80;4.70;;;;;;;14.54;81.11;100388.23;105562;1259;98039;-78
2023/04/11 08:54:29;;;;;;;6.70;4.60;;;;;;;14.58;80.11;100380.39;105638;1260;98049;-79
2023/04/11 08:57:30;;;;;;;5.70;5.10;;;;;;;14.63;79.97;100370.98;105454;1260;99091;-79
2023/04/11 09:00:17;;;;;;;7.00;5.70;;;;;;;14.72;79.08;100360.34;105812;1259;102230;-78
2023/04/11 09:03:07;;;;;;;7.80;5.10;;;;;;;14.78;79.07;100353.44;105391;1260;99240;-77
2023/04/11 09:05:53;;;;;;;9.30;4.40;;;;;;;14.87;78.20;100346.89;105426;1258;97957;-78
2023/04/11 09:08:38;;;;;;;9.40;5.50;;;;;;;14.91;77.70;100343.66;105172;1257;98065;-79
2023/04/11 09:11:26;;;;;;;6.30;4.70;;;;;;;14.94;77.21;100337.13;105285;1260;97878;-78
2023/04/11 09:14:11;;;;;;;5.30;4.50;;;;;;;14.98;76.54;100329.88;105207;1261;101336;-78
2023/04/11 09:17:05;;;;;;;4.50;3.60;;;;;;;15.02;76.51;100325.84;105205;1255;99091;-78
2023/04/11 09:19:51;;;;;;;5.20;4.20;;;;;;;15.08;76.43;100321.60;105338;1255;99534;-78
2023/04/11 09:22:36;;;;;;;5.90;4.30;;;;;;;15.10;75.89;100317.76;105509;1260;97977;-78
2023/04/11 09:25:22;;;;;;;5.30;4.30;;;;;;;15.15;76.52;100316.38;105485;1259;97974;-80
2023/04/11 09:28:09;;;;;;;4.50;3.90;;;;;;;15.23;76.06;100313.77;105560;1260;101906;-78
2023/04/11 09:30:55;;;;;;;4.60;3.90;;;;;;;15.27;74.59;100309.36;105489;1255;99177;-78
2023/04/11 09:33:55;;;;;;;6.00;4.50;;;;;;;15.32;75.00;100305.32;105465;1255;98090;-79
2023/04/11 09:36:41;;;;;;;5.00;4.40;;;;;;;15.40;75.23;100304.15;105210;1256;99288;-78
2023/04/11 09:39:28;;;;;;;6.80;4.70;;;;;;;15.47;74.56;100301.11;105165;1255;99592;-78
2023/04/11 09:42:24;;;;;;;4.90;4.10;;;;;;;15.53;73.87;100295.80;105292;1258;102207;-77
2023/04/11 09:45:20;;;;;;;6.70;4.00;;;;;;;15.57;72.94;100290.08;105132;1256;123799;-77
2023/04/11 09:48:07;;;;;;;4.60;3.70;;;;;;;15.62;72.91;100289.34;105677;1256;97984;-76
2023/04/11 09:50:52;;;;;;;4.40;3.80;;;;;;;15.70;73.99;100285.42;105463;1256;97968;-78
2023/04/11 09:53:38;;;;;;;6.00;4.10;;;;;;;15.78;72.90;100280.96;105429;1256;97869;-80
2023/04/11 09:56:25;;;;;;;4.40;3.90;;;;;;;15.84;72.97;100281.29;105455;1258;102951;-79
2023/04/11 09:59:11;;;;;;;4.00;3.40;;;;;;;15.96;72.48;100278.55;105482;1255;100432;-77
2023/04/11 10:01:57;;;;;;;4.40;3.60;;;;;;;16.04;71.38;100273.35;105184;1255;99000;-76
2023/04/11 10:04:43;;;;;;;4.30;3.90;;;;;;;16.11;70.68;100268.73;105267;1260;97975;-78
2023/04/11 10:07:29;;;;;;;3.70;3.40;;;;;;;16.18;70.74;100265.73;105252;1255;99184;-77
2023/04/11 10:10:22;;;;;;;3.60;3.20;;;;;;;16.25;69.94;100261.31;105320;1256;102933;-76
2023/04/11 10:13:42;;;;;;;3.40;3.10;;;;;;;16.22;68.31;100257.33;105335;1255;99112;-78
2023/04/11 10:16:31;;;;;;;4.90;3.10;;;;;;;16.14;68.08;100254.81;105230;1260;98573;-78
2023/04/11 10:19:16;;;;;;;3.60;3.10;;;;;;;16.13;67.85;100256.55;105221;1260;99145;-77
2023/04/11 10:22:02;;;;;;;4.40;3.20;;;;;;;16.12;67.70;100257.30;105458;1261;97947;-79
2023/04/11 10:25:18;;;;;;;4.60;3.20;;;;;;;16.12;66.98;100255.19;105505;1259;102274;-79
2023/04/11 10:28:03;;;;;;;4.50;3.60;;;;;;;16.08;66.75;100247.19;105459;1258;100687;-79
2023/04/11 10:31:00;;;;;;;4.80;3.60;;;;;;;16.07;67.44;100248.24;105523;1260;97958;-79
2023/04/11 10:34:13;;;;;;;4.10;3.30;;;;;;;16.06;66.94;100243.64;105539;1258;97990;-79
2023/04/11 10:37:06;;;;;;;3.30;3.00;;;;;;;16.11;66.99;100238.30;105545;1254;98471;-78
2023/04/11 10:39:59;;;;;;;3.70;2.70;;;;;;;16.15;66.49;100236.19;105548;1255;103755;-79
2023/04/11 10:42:45;;;;;;;4.00;3.40;;;;;;;16.19;66.45;100231.92;105717;1256;99060;-78
2023/04/11 10:45:33;;;;;;;3.70;2.80;;;;;;;16.26;66.94;100227.98;105545;1255;99136;-79
2023/04/11 10:48:18;;;;;;;3.30;3.00;;;;;;;16.35;66.47;100222.41;105544;1255;99231;-77
2023/04/11 10:51:22;;;;;;;3.00;2.70;;;;;;;16.42;66.52;100220.20;105560;1260;99266;-78
2023/04/11 10:54:24;;;;;;;4.80;3.50;;;;;;;16.45;65.50;100218.94;105530;1260;102843;-79
2023/04/11 10:57:09;;;;;;;5.10;3.50;;;;;;;16.43;64.45;100211.26;105847;1255;99051;-79
2023/04/11 10:59:55;;;;;;;4.70;3.60;;;;;;;16.43;63.94;100209.86;105715;1261;98704;-79
2023/04/11 11:02:41;;;;;;;4.20;3.70;;;;;;;16.42;62.84;100207.02;106102;1259;98098;-79
2023/04/11 11:05:26;;;;;;;5.60;3.90;;;;;;;16.40;62.77;100204.59;105589;1260;98407;-79
2023/04/11 11:08:12;;;;;;;6.40;5.40;;;;;;;16.45;63.34;100209.09;105485;1258;101349;-77
2023/04/11 11:11:03;;;;;;;5.60;4.10;;;;;;;16.50;63.25;100205.03;105450;1255;99104;-77
2023/04/11 11:13:51;;;;;;;5.50;4.50;;;;;;;16.54;63.68;100200.27;105344;1259;99044;-78
2023/04/11 11:16:36;;;;;;;7.00;3.70;;;;;;;16.60;63.12;100201.20;105424;1258;97983;-78
2023/04/11 11:19:21;;;;;;;7.30;3.60;;;;;;;16.66;62.82;100204.65;105325;1255;98483;-77
2023/04/11 11:22:16;;;;;;;3.70;3.40;;;;;;;16.67;62.28;100198.73;105426;1255;103147;-78
2023/04/11 11:25:08;;;;;;;3.80;3.10;;;;;;;16.63;60.97;100197.02;105266;1260;99084;-79
2023/04/11 11:28:07;;;;;;;5.90;3.10;;;;;;;16.58;59.97;100191.49;105208;1262;99117;-78
2023/04/11 11:30:56;;;;;;;4.20;3.60;;;;;;;16.55;59.94;100185.89;105388;1255;98456;-78
2023/04/11 11:33:41;;;;;;;4.50;3.70;;;;;;;16.56;60.85;100180.30;105353;1255;99250;-78
2023/04/11 11:36:28;;;;;;;4.70;3.80;;;;;;;16.59;60.87;100179.62;105368;1256;101219;-78
2023/04/11 11:39:14;;;;;;;5.10;3.70;;;;;;;16.59;59.90;100179.29;105305;1255;99065;-77
2023/04/11 11:42:00;;;;;;;4.10;3.70;;;;;;;16.56;59.41;100173.53;105317;1260;99222;-78
2023/04/11 11:44:45;;;;;;;5.50;3.50;;;;;;;16.54;59.32;100170.89;105260;1261;97969;-78
2023/04/11 11:47:40;;;;;;;3.70;3.40;;;;;;;16.58;59.82;100168.28;105282;1256;99218;-78
2023/04/11 11:50:29;;;;;;;3.20;2.80;;;;;;;16.61;58.67;100160.46;105360;1258;101266;-78
2023/04/11 11:53:15;;;;;;;4.90;3.40;;;;;;;16.63;58.41;100166.23;105836;1255;99263;-79
2023/04/11 11:56:12;;;;;;;4.00;3.70;;;;;;;16.67;59.44;100166.48;105262;1257;98906;-78
2023/04/11 11:58:57;;;;;;;3.50;3.20;;;;;;;16.70;58.50;100162.23;105997;1255;97888;-79
2023/04/11 12:01:44;;;;;;;5.00;3.50;;;;;;;16.72;58.19;100157.28;105664;1255;99132;-79
2023/04/11 12:04:31;;;;;;;4.00;3.60;;;;;;;16.73;57.28;100147.48;106110;1256;101331;-80
2023/04/11 12:07:21;;;;;;;3.90;3.50;;;;;;;16.79;57.16;100144.67;105603;1259;99835;-79
2023/04/11 12:10:12;;;;;;;3.90;3.30;;;;;;;16.87;56.99;100142.89;105650;1258;98893;-77
2023/04/11 12:12:58;;;;;;;;;;;;;;;16.95;56.60;100137.40;105660;1258;98744;-79
2023/04/11 12:15:48;;;;;;;6.50;3.60;;;;;;;17.02;56.52;100141.95;105625;1259;97946;-79
2023/04/11 12:18:40;;;;;;;4.80;4.30;;;;;;;17.08;56.53;100139.08;105608;1259;101402;-80
2023/04/11 12:21:25;;;;;;;4.80;3.60;;;;;;;17.14;56.37;100134.31;105652;1255;100329;-78
2023/04/11 12:24:10;;;;;;;5.30;4.80;;;;;;;17.18;56.24;100132.23;105751;1261;97897;-79
2023/04/11 12:26:56;;;;;;;5.20;4.20;;;;;;;17.21;56.37;100128.23;105568;1260;97968;-78
2023/04/11 12:29:42;;;;;;;4.80;4.30;;;;;;;17.17;55.19;100126.62;105490;1254;97888;-78
2023/04/11 12:32:27;;;;;;;5.00;4.30;;;;;;;17.12;55.14;100121.77;105604;1258;101385;-79
2023/04/11 12:35:13;;;;;;;6.00;4.90;;;;;;;17.11;55.16;100114.38;105574;1255;100065;-78
2023/04/11 12:37:58;;;;;;;6.50;5.30;;;;;;;17.13;55.68;100111.23;105687;1255;97962;-79
2023/04/11 12:40:45;;;;;;;6.40;4.80;;;;;;;17.17;55.64;100106.59;105658;1255;98438;-80